Time;durP1;ratioP1;P1;durP2;ratioP2;P2;SDS_P1;SDS_P2;PMS_P1;PMS_P2;Temp;Humidity;BMP_temperature;BMP_pressure;BME280_temperature;BME280_humidity;BME280_pressure;Samples;Min_cycle;Max_cycle;Signal;HPM_P1;HPM_P2
2023/04/02 00:02:21;;;;;;;1.13;0.60;;;8.10;99.90;;;;;;5073999;28;20058;-82
2023/04/02 00:05:30;;;;;;;0.90;0.80;;;8.20;99.90;;;;;;5080475;28;20408;-82
2023/04/02 00:08:02;;;;;;;1.05;0.60;;;8.20;99.90;;;;;;5082225;28;20052;-83
2023/04/02 00:10:30;;;;;;;0.60;0.55;;;8.10;99.90;;;;;;5048479;28;20168;-82
2023/04/02 00:13:00;;;;;;;1.35;0.88;;;8.00;99.90;;;;;;5065132;28;20306;-82
2023/04/02 00:15:27;;;;;;;0.50;0.40;;;8.00;99.90;;;;;;5064434;28;20442;-82
2023/04/02 00:17:55;;;;;;;0.57;0.50;;;8.00;99.90;;;;;;5048097;28;20139;-82
2023/04/02 00:20:21;;;;;;;0.77;0.55;;;8.00;99.90;;;;;;5065935;28;20642;-82
2023/04/02 00:22:48;;;;;;;1.50;0.80;;;8.10;99.90;;;;;;5059652;28;20063;-81
2023/04/02 00:25:15;;;;;;;1.27;0.60;;;8.10;99.90;;;;;;5029928;28;20613;-81
2023/04/02 00:27:42;;;;;;;0.82;0.70;;;8.10;99.90;;;;;;5065112;28;20044;-81
2023/04/02 00:30:14;;;;;;;1.48;1.05;;;8.00;99.90;;;;;;5056660;28;20070;-81
2023/04/02 00:32:41;;;;;;;1.23;0.70;;;7.90;99.90;;;;;;5098371;28;20051;-81
2023/04/02 00:35:17;;;;;;;1.08;0.60;;;7.80;99.90;;;;;;5067113;28;20063;-81
2023/04/02 00:37:43;;;;;;;0.68;0.50;;;7.80;99.90;;;;;;5048499;28;20135;-81
2023/04/02 00:40:19;;;;;;;0.93;0.70;;;7.80;99.90;;;;;;5055854;28;20075;-81
2023/04/02 00:42:46;;;;;;;1.15;0.68;;;7.80;99.90;;;;;;5080678;28;20058;-81
2023/04/02 00:45:23;;;;;;;0.50;0.40;;;7.70;99.90;;;;;;5066036;28;20058;-81
2023/04/02 00:47:50;;;;;;;2.33;0.70;;;7.70;99.90;;;;;;5048500;28;20048;-81
2023/04/02 00:50:18;;;;;;;1.13;0.50;;;7.70;99.90;;;;;;5047579;28;20075;-81
2023/04/02 00:52:47;;;;;;;1.13;0.55;;;7.70;99.90;;;;;;5081019;28;20048;-81
2023/04/02 00:55:22;;;;;;;1.13;0.77;;;7.70;99.90;;;;;;5066893;28;20058;-80
2023/04/02 00:57:49;;;;;;;1.00;0.80;;;7.70;99.90;;;;;;5048012;28;20507;-80
2023/04/02 01:00:29;;;;;;;1.20;0.77;;;7.80;99.90;;;;;;5038123;28;20094;-81
2023/04/02 01:03:18;;;;;;;1.90;0.85;;;7.70;99.90;;;;;;5076663;28;20135;-81
2023/04/02 01:05:47;;;;;;;0.95;0.60;;;7.80;99.90;;;;;;5077736;28;20052;-80
2023/04/02 01:08:26;;;;;;;0.68;0.52;;;7.80;99.90;;;;;;5044886;28;20056;-81
2023/04/02 01:11:30;;;;;;;0.70;0.70;;;7.80;99.90;;;;;;5045440;28;20483;-81
2023/04/02 01:14:21;;;;;;;1.35;0.60;;;7.80;99.90;;;;;;5081867;28;20047;-80
2023/04/02 01:17:29;;;;;;;0.88;0.75;;;7.90;99.90;;;;;;5069697;28;20441;-81
2023/04/02 01:20:18;;;;;;;0.73;0.65;;;7.90;99.90;;;;;;5043108;28;20068;-80
2023/04/02 01:22:57;;;;;;;1.15;0.88;;;7.90;99.90;;;;;;5065534;28;20052;-79
2023/04/02 01:25:28;;;;;;;2.92;1.10;;;7.80;99.90;;;;;;5063729;28;20067;-80
2023/04/02 01:28:06;;;;;;;1.00;0.90;;;7.80;99.90;;;;;;5047023;28;20054;-80
2023/04/02 01:30:33;;;;;;;1.13;0.95;;;7.80;99.90;;;;;;5058575;28;20079;-80
2023/04/02 01:33:00;;;;;;;1.27;1.00;;;7.80;99.90;;;;;;5049743;28;20143;-80
2023/04/02 01:35:28;;;;;;;2.08;1.17;;;7.80;99.90;;;;;;5049481;28;20056;-80
2023/04/02 01:38:05;;;;;;;1.67;1.10;;;7.80;99.90;;;;;;5050552;28;20159;-81
2023/04/02 01:40:34;;;;;;;1.20;0.93;;;7.80;99.90;;;;;;5052362;28;20044;-80
2023/04/02 01:43:26;;;;;;;2.50;1.42;;;7.80;99.90;;;;;;5084636;28;20075;-80
2023/04/02 01:45:53;;;;;;;1.70;1.23;;;7.80;99.90;;;;;;5085675;28;20040;-80
2023/04/02 01:48:26;;;;;;;1.63;1.10;;;7.80;99.90;;;;;;5069456;28;20076;-81
2023/04/02 01:50:53;;;;;;;2.05;1.35;;;7.80;99.90;;;;;;5071446;28;20075;-80
2023/04/02 01:53:21;;;;;;;2.08;1.30;;;7.80;99.90;;;;;;5051859;28;20060;-80
2023/04/02 01:55:53;;;;;;;1.38;1.17;;;7.90;99.90;;;;;;5083090;28;20048;-80
2023/04/02 01:58:25;;;;;;;2.42;1.55;;;7.80;99.90;;;;;;5079712;28;20134;-80
2023/04/02 02:01:00;;;;;;;3.42;1.80;;;7.80;99.90;;;;;;5083477;28;20063;-80
2023/04/02 02:03:27;;;;;;;3.83;1.83;;;7.80;99.90;;;;;;5068235;28;20047;-80
2023/04/02 02:05:54;;;;;;;2.45;1.40;;;7.80;99.90;;;;;;5050397;28;20048;-80
2023/04/02 02:08:45;;;;;;;2.78;1.63;;;7.90;99.90;;;;;;5048552;28;20044;-80
2023/04/02 02:11:20;;;;;;;2.35;1.65;;;7.90;99.90;;;;;;5060689;28;20048;-81
2023/04/02 02:14:00;;;;;;;2.55;1.60;;;7.90;99.90;;;;;;5067159;28;20664;-80
2023/04/02 02:16:28;;;;;;;1.70;1.33;;;7.90;99.90;;;;;;5085258;28;20044;-80
2023/04/02 02:18:57;;;;;;;3.22;1.60;;;8.00;99.90;;;;;;5062286;28;20193;-80
2023/04/02 02:21:32;;;;;;;2.63;1.73;;;7.90;99.90;;;;;;5048609;28;20043;-80
2023/04/02 02:23:59;;;;;;;2.58;1.98;;;7.90;99.90;;;;;;5086191;28;20052;-80
2023/04/02 02:26:26;;;;;;;2.30;1.65;;;7.90;99.90;;;;;;5084531;28;20454;-80
2023/04/02 02:28:53;;;;;;;5.93;2.55;;;7.90;99.90;;;;;;5054137;28;20127;-80
2023/04/02 02:31:26;;;;;;;4.47;2.17;;;7.90;99.90;;;;;;5065527;28;20516;-80
2023/04/02 02:33:57;;;;;;;3.85;2.30;;;7.90;99.90;;;;;;5051029;28;20066;-80
2023/04/02 02:36:32;;;;;;;3.15;2.13;;;7.90;99.90;;;;;;5066428;28;20143;-80
2023/04/02 02:39:41;;;;;;;3.08;1.83;;;7.80;99.90;;;;;;5071587;28;20056;-80
2023/04/02 02:42:34;;;;;;;3.17;1.77;;;7.90;99.90;;;;;;5021338;28;20063;-81
2023/04/02 02:45:01;;;;;;;2.80;1.65;;;7.80;99.90;;;;;;5019886;28;20519;-80
2023/04/02 02:47:29;;;;;;;2.38;1.67;;;7.90;99.90;;;;;;5034378;28;20132;-80
2023/04/02 02:49:58;;;;;;;3.22;1.70;;;7.90;99.90;;;;;;5060534;28;20107;-80
2023/04/02 02:52:26;;;;;;;3.03;2.15;;;7.80;99.90;;;;;;5067502;28;20180;-80
2023/04/02 02:55:03;;;;;;;2.30;1.63;;;7.80;99.90;;;;;;5067078;28;20052;-80
2023/04/02 02:57:32;;;;;;;3.00;2.10;;;7.80;99.90;;;;;;5056221;28;20044;-81
2023/04/02 02:59:59;;;;;;;4.05;2.92;;;7.80;99.90;;;;;;5057120;28;20747;-80
2023/04/02 03:02:26;;;;;;;4.20;2.70;;;7.80;99.90;;;;;;5067202;28;20052;-80
2023/04/02 03:04:54;;;;;;;4.38;2.35;;;7.70;99.90;;;;;;5065145;28;20594;-81
2023/04/02 03:07:24;;;;;;;4.13;2.72;;;7.80;99.90;;;;;;5058831;28;20134;-80
2023/04/02 03:10:18;;;;;;;3.55;2.45;;;7.70;99.90;;;;;;5064287;28;20121;-80
2023/04/02 03:12:51;;;;;;;3.60;2.15;;;7.70;99.90;;;;;;5054114;28;20044;-80
2023/04/02 03:15:20;;;;;;;3.20;2.13;;;7.80;99.90;;;;;;5067349;28;20048;-81
2023/04/02 03:17:55;;;;;;;3.42;2.13;;;7.80;99.90;;;;;;5073761;28;20080;-80
2023/04/02 03:20:29;;;;;;;6.40;2.92;;;7.80;99.90;;;;;;5032969;28;20395;-80
2023/04/02 03:23:06;;;;;;;3.75;2.30;;;7.80;99.90;;;;;;5097371;28;20629;-81
2023/04/02 03:25:38;;;;;;;4.47;2.60;;;7.80;99.90;;;;;;5055280;28;20044;-81
2023/04/02 03:28:07;;;;;;;4.93;2.65;;;7.80;99.90;;;;;;5074473;28;20056;-80
2023/04/02 03:30:49;;;;;;;3.17;2.13;;;7.80;99.90;;;;;;5057960;28;20155;-80
2023/04/02 03:33:28;;;;;;;4.32;2.40;;;7.80;99.90;;;;;;5050947;28;20051;-80
2023/04/02 03:36:18;;;;;;;5.38;1.92;;;7.80;99.90;;;;;;5049675;28;20440;-80
2023/04/02 03:38:50;;;;;;;4.05;1.67;;;7.80;99.90;;;;;;5053788;28;20569;-80
2023/04/02 03:41:21;;;;;;;4.18;2.33;;;7.80;99.90;;;;;;5071423;28;20512;-80
2023/04/02 03:43:53;;;;;;;5.43;2.53;;;7.80;99.90;;;;;;5054358;28;20047;-80
2023/04/02 03:46:44;;;;;;;4.28;2.72;;;7.80;99.90;;;;;;5037537;28;20052;-80
2023/04/02 03:49:17;;;;;;;3.45;2.40;;;7.70;99.90;;;;;;5056701;28;20655;-80
2023/04/02 03:51:51;;;;;;;3.47;1.85;;;7.80;99.90;;;;;;5056718;28;20044;-80
2023/04/02 03:54:18;;;;;;;4.55;2.33;;;7.80;99.90;;;;;;5087364;28;20052;-80
2023/04/02 03:56:46;;;;;;;3.33;1.60;;;7.80;99.90;;;;;;5085481;28;20123;-80
2023/04/02 04:00:07;;;;;;;3.13;1.67;;;7.80;99.90;;;;;;5077607;28;20048;-80
2023/04/02 04:02:46;;;;;;;5.78;2.60;;;7.80;99.90;;;;;;5023295;28;20069;-80
2023/04/02 04:05:30;;;;;;;4.72;2.60;;;7.70;99.90;;;;;;5052812;28;20048;-80
2023/04/02 04:08:12;;;;;;;6.38;2.53;;;7.60;99.90;;;;;;5057192;28;20075;-80
2023/04/02 04:10:39;;;;;;;6.28;2.50;;;7.60;99.90;;;;;;5019639;28;20059;-80
2023/04/02 04:13:14;;;;;;;5.55;2.95;;;7.60;99.90;;;;;;5071043;28;20066;-80
2023/04/02 04:16:04;;;;;;;3.50;2.10;;;7.60;99.90;;;;;;5070468;28;20083;-80
2023/04/02 04:18:56;;;;;;;4.57;2.85;;;7.60;99.90;;;;;;5087894;28;20127;-80
2023/04/02 04:21:29;;;;;;;5.38;2.28;;;7.70;99.90;;;;;;5081634;28;20072;-81
2023/04/02 04:24:02;;;;;;;6.25;2.80;;;7.70;99.90;;;;;;5071073;28;20047;-81
2023/04/02 04:26:52;;;;;;;8.38;3.28;;;7.60;99.90;;;;;;5054787;28;20044;-81
2023/04/02 04:29:37;;;;;;;4.10;2.40;;;7.60;99.90;;;;;;5078424;28;20056;-81
2023/04/02 04:32:25;;;;;;;5.28;2.83;;;7.50;99.90;;;;;;5071917;28;20131;-80
2023/04/02 04:34:59;;;;;;;6.13;2.58;;;7.50;99.90;;;;;;5086393;28;20238;-80
2023/04/02 04:37:32;;;;;;;7.47;2.55;;;7.60;99.90;;;;;;5071656;28;20411;-80
2023/04/02 04:40:06;;;;;;;5.05;2.58;;;7.50;99.90;;;;;;5062009;28;20052;-81
2023/04/02 04:42:34;;;;;;;6.88;2.80;;;7.50;99.90;;;;;;5079940;28;20489;-81
2023/04/02 04:45:15;;;;;;;5.53;2.90;;;7.50;99.90;;;;;;5053786;28;20055;-80
2023/04/02 04:47:50;;;;;;;9.15;3.55;;;7.50;99.90;;;;;;5071560;28;20620;-80
2023/04/02 04:50:52;;;;;;;5.45;2.70;;;7.40;99.90;;;;;;5082706;28;20047;-80
2023/04/02 04:53:26;;;;;;;3.50;2.55;;;7.50;99.90;;;;;;5043942;28;20056;-83
2023/04/02 04:55:57;;;;;;;4.35;2.45;;;7.50;99.90;;;;;;5084767;28;20147;-80
2023/04/02 04:58:47;;;;;;;4.97;2.05;;;7.50;99.90;;;;;;5067980;28;20176;-80
2023/04/02 05:01:29;;;;;;;4.93;2.20;;;7.50;99.90;;;;;;5047311;28;20459;-82
2023/04/02 05:04:15;;;;;;;5.17;2.20;;;7.50;99.90;;;;;;5066821;28;20040;-80
2023/04/02 05:06:44;;;;;;;6.35;2.40;;;7.40;99.90;;;;;;5054285;28;20589;-80
2023/04/02 05:09:26;;;;;;;4.68;1.90;;;7.40;99.90;;;;;;5060130;28;20179;-80
2023/04/02 05:12:07;;;;;;;3.28;1.70;;;7.40;99.90;;;;;;5066127;28;20513;-80
2023/04/02 05:14:41;;;;;;;4.35;1.90;;;7.50;99.90;;;;;;5063694;28;20222;-80
2023/04/02 05:17:13;;;;;;;3.92;1.80;;;7.40;99.90;;;;;;5071048;28;20048;-81
2023/04/02 05:20:20;;;;;;;2.25;1.45;;;7.40;99.90;;;;;;5072329;28;20052;-79
2023/04/02 05:23:10;;;;;;;2.30;1.25;;;7.50;99.90;;;;;;5048386;28;20079;-80
2023/04/02 05:25:37;;;;;;;3.47;1.30;;;7.60;99.90;;;;;;5058386;28;20532;-80
2023/04/02 05:28:11;;;;;;;2.50;1.30;;;7.60;99.90;;;;;;5046114;28;20044;-80
2023/04/02 05:30:45;;;;;;;3.25;1.58;;;7.50;99.90;;;;;;5061893;28;20039;-80
2023/04/02 05:33:23;;;;;;;3.47;1.58;;;7.50;99.90;;;;;;5063641;28;20056;-80
2023/04/02 05:36:11;;;;;;;3.88;2.30;;;7.50;99.90;;;;;;5048195;28;20058;-81
2023/04/02 05:38:42;;;;;;;2.88;1.42;;;7.40;99.90;;;;;;5044502;28;20048;-80
2023/04/02 05:41:30;;;;;;;2.80;1.42;;;7.40;99.90;;;;;;5060759;28;20072;-81
2023/04/02 05:44:04;;;;;;;3.47;1.85;;;7.40;99.90;;;;;;5043868;28;20472;-81
2023/04/02 05:46:36;;;;;;;3.65;1.40;;;7.40;99.90;;;;;;5035765;28;20131;-81
2023/04/02 05:49:05;;;;;;;3.30;1.45;;;7.40;99.90;;;;;;5069569;28;20063;-81
2023/04/02 05:51:41;;;;;;;2.97;1.70;;;7.40;99.90;;;;;;5055761;28;20131;-81
2023/04/02 05:54:38;;;;;;;4.30;1.88;;;7.40;99.90;;;;;;5042328;28;20048;-81
2023/04/02 05:57:10;;;;;;;3.92;2.00;;;7.40;99.90;;;;;;5038232;28;20044;-81
2023/04/02 05:59:46;;;;;;;4.43;1.67;;;7.40;99.90;;;;;;5058969;28;20602;-80
2023/04/02 06:02:20;;;;;;;5.28;1.58;;;7.40;99.90;;;;;;5058149;28;20069;-81
2023/04/02 06:05:06;;;;;;;2.90;1.52;;;7.50;99.90;;;;;;5066896;28;20040;-81
2023/04/02 06:07:39;;;;;;;3.35;1.58;;;7.40;99.90;;;;;;5046662;28;20520;-81
2023/04/02 06:10:09;;;;;;;5.30;1.63;;;7.30;99.90;;;;;;5045479;28;20079;-81
2023/04/02 06:12:43;;;;;;;2.70;1.35;;;7.30;99.90;;;;;;5061710;28;20044;-81
2023/04/02 06:15:18;;;;;;;3.38;1.38;;;7.20;99.90;;;;;;5062078;28;20147;-81
2023/04/02 06:18:05;;;;;;;3.53;1.30;;;7.20;99.90;;;;;;5075813;28;20079;-81
2023/04/02 06:20:31;;;;;;;2.85;1.15;;;7.30;99.90;;;;;;5076617;28;20152;-81
2023/04/02 06:23:06;;;;;;;3.28;1.60;;;7.20;99.90;;;;;;5078763;28;20048;-81
2023/04/02 06:25:38;;;;;;;2.40;1.20;;;7.30;99.90;;;;;;5046155;28;20048;-81
2023/04/02 06:28:06;;;;;;;3.83;1.67;;;7.30;99.90;;;;;;5050366;28;20399;-81
2023/04/02 06:30:34;;;;;;;6.43;1.58;;;7.30;99.90;;;;;;5059741;28;20567;-81
2023/04/02 06:33:02;;;;;;;2.78;1.42;;;7.20;99.90;;;;;;5042550;28;20048;-81
2023/04/02 06:35:29;;;;;;;4.85;1.75;;;7.20;99.90;;;;;;5078898;28;20056;-81
2023/04/02 06:37:57;;;;;;;3.42;1.38;;;7.20;99.90;;;;;;5044157;28;20055;-81
2023/04/02 06:40:40;;;;;;;3.33;1.45;;;7.20;99.90;;;;;;5041903;28;20183;-81
2023/04/02 06:43:32;;;;;;;;;;;7.20;99.90;;;;;;5055793;28;20051;-81
2023/04/02 06:46:00;;;;;;;2.40;1.58;;;7.30;99.90;;;;;;5055329;28;20503;-82
2023/04/02 06:48:26;;;;;;;3.70;1.75;;;7.30;99.90;;;;;;5040016;28;20048;-81
2023/04/02 06:51:08;;;;;;;7.60;2.15;;;7.30;99.90;;;;;;5026375;28;20050;-82
2023/04/02 06:53:37;;;;;;;3.22;1.70;;;7.30;99.90;;;;;;5043475;28;20060;-81
2023/04/02 06:56:22;;;;;;;3.38;1.60;;;7.30;99.90;;;;;;5061059;28;20045;-82
2023/04/02 06:58:49;;;;;;;3.20;1.50;;;7.30;99.90;;;;;;5077341;28;20075;-82
2023/04/02 07:01:24;;;;;;;2.35;1.48;;;7.30;99.90;;;;;;5078571;28;20058;-82
2023/04/02 07:03:51;;;;;;;1.90;1.00;;;7.30;99.90;;;;;;5043475;28;20040;-80
2023/04/02 07:06:19;;;;;;;3.33;1.35;;;7.30;99.90;;;;;;5060131;28;20052;-81
2023/04/02 07:08:46;;;;;;;1.92;1.08;;;7.30;99.90;;;;;;5062774;28;20135;-82
2023/04/02 07:11:17;;;;;;;2.03;1.15;;;7.30;99.90;;;;;;5064398;28;20739;-82
2023/04/02 07:13:49;;;;;;;3.50;1.17;;;7.30;99.90;;;;;;5076283;28;20052;-82
2023/04/02 07:16:18;;;;;;;3.00;1.38;;;7.40;99.90;;;;;;5056535;28;20055;-81
2023/04/02 07:18:45;;;;;;;2.45;1.50;;;7.30;99.90;;;;;;5041346;28;20785;-82
2023/04/02 07:21:12;;;;;;;3.00;1.48;;;7.30;99.90;;;;;;5076404;28;20387;-82
2023/04/02 07:23:38;;;;;;;2.90;1.20;;;7.30;99.90;;;;;;5058990;28;20196;-82
2023/04/02 07:26:06;;;;;;;1.75;1.02;;;7.40;99.90;;;;;;5076185;28;20443;-81
2023/04/02 07:28:33;;;;;;;2.97;1.25;;;7.40;99.90;;;;;;5076177;28;20048;-81
2023/04/02 07:31:00;;;;;;;2.60;1.20;;;7.50;99.90;;;;;;5076194;28;20056;-81
2023/04/02 07:33:28;;;;;;;4.10;1.30;;;7.50;99.90;;;;;;5076137;28;20075;-81
2023/04/02 07:35:56;;;;;;;4.45;1.30;;;7.50;99.90;;;;;;5071485;28;20078;-82
2023/04/02 07:38:23;;;;;;;9.30;2.70;;;7.40;99.90;;;;;;5062453;28;20193;-83
2023/04/02 07:40:50;;;;;;;5.68;1.88;;;7.40;99.90;;;;;;5060129;28;20130;-83
2023/04/02 07:43:16;;;;;;;2.80;1.25;;;7.30;99.90;;;;;;5077923;28;20048;-83
2023/04/02 07:45:43;;;;;;;2.72;1.23;;;7.30;99.90;;;;;;5060770;28;20056;-83
2023/04/02 07:48:11;;;;;;;4.47;1.30;;;7.20;99.90;;;;;;5051941;28;20048;-84
2023/04/02 07:50:38;;;;;;;2.40;1.05;;;7.30;99.90;;;;;;5044236;28;20075;-83
2023/04/02 07:53:05;;;;;;;3.25;1.30;;;7.30;99.90;;;;;;5059895;28;20344;-83
2023/04/02 07:55:32;;;;;;;3.17;1.27;;;7.40;99.90;;;;;;5061996;28;20063;-83
2023/04/02 07:58:00;;;;;;;3.03;1.38;;;7.30;99.90;;;;;;5061540;28;20636;-83
2023/04/02 08:00:28;;;;;;;2.60;1.15;;;7.30;99.90;;;;;;5079528;28;20164;-83
2023/04/02 08:02:58;;;;;;;3.08;1.40;;;7.30;99.90;;;;;;5060098;28;20052;-84
2023/04/02 08:05:26;;;;;;;3.05;1.60;;;7.40;99.90;;;;;;5066657;28;20054;-84
2023/04/02 08:07:54;;;;;;;6.47;1.90;;;7.40;99.90;;;;;;5054063;28;20084;-84
2023/04/02 08:10:21;;;;;;;5.32;1.73;;;7.40;99.90;;;;;;5081559;28;20044;-84
2023/04/02 08:12:48;;;;;;;3.20;1.85;;;7.30;99.90;;;;;;5063142;28;20056;-82
2023/04/02 08:15:15;;;;;;;4.55;1.70;;;7.30;99.90;;;;;;5089990;28;20063;-83
2023/04/02 08:17:43;;;;;;;3.47;1.55;;;7.30;99.90;;;;;;5066037;28;20066;-83
2023/04/02 08:20:20;;;;;;;1.88;1.27;;;7.30;99.90;;;;;;5062458;28;20452;-83
2023/04/02 08:22:48;;;;;;;1.38;1.02;;;7.40;99.90;;;;;;5050039;28;20072;-84
2023/04/02 08:25:15;;;;;;;2.47;1.20;;;7.40;99.90;;;;;;5083385;28;20145;-85
2023/04/02 08:27:41;;;;;;;2.38;1.20;;;7.50;99.90;;;;;;5065290;28;20206;-84
2023/04/02 08:30:10;;;;;;;2.88;1.05;;;7.50;99.90;;;;;;5074965;28;20698;-83
2023/04/02 08:32:39;;;;;;;2.97;1.33;;;7.60;99.90;;;;;;5064990;28;20650;-84
2023/04/02 08:35:08;;;;;;;2.33;1.15;;;7.70;99.90;;;;;;5055732;28;20050;-84
2023/04/02 08:37:36;;;;;;;3.35;1.42;;;7.70;99.90;;;;;;5062786;28;20127;-85
2023/04/02 08:40:03;;;;;;;4.65;1.88;;;7.80;99.90;;;;;;5057268;28;20524;-84
2023/04/02 08:42:42;;;;;;;4.05;1.45;;;7.80;99.90;;;;;;5063073;28;20044;-81
2023/04/02 08:45:20;;;;;;;2.22;1.23;;;7.90;99.90;;;;;;5049155;28;20048;-84
2023/04/02 08:47:52;;;;;;;3.00;1.20;;;7.90;99.90;;;;;;5048247;28;20048;-84
2023/04/02 08:50:31;;;;;;;2.97;1.23;;;8.00;99.90;;;;;;5048890;28;20056;-85
2023/04/02 08:52:59;;;;;;;1.45;0.88;;;8.10;99.90;;;;;;5050708;28;20492;-84
2023/04/02 08:55:34;;;;;;;2.13;1.10;;;8.10;99.90;;;;;;5051070;28;20052;-84
2023/04/02 08:58:20;;;;;;;1.70;1.05;;;8.20;99.90;;;;;;5061037;28;20460;-83
2023/04/02 09:00:48;;;;;;;2.10;1.23;;;8.20;99.90;;;;;;5077243;28;20055;-84
2023/04/02 09:03:16;;;;;;;1.08;0.80;;;8.20;99.90;;;;;;5058471;28;20044;-84
2023/04/02 09:05:44;;;;;;;2.47;0.95;;;8.20;99.90;;;;;;5064763;28;20044;-84
2023/04/02 09:08:24;;;;;;;2.85;1.05;;;8.30;99.90;;;;;;5040943;28;20054;-83
2023/04/02 09:11:06;;;;;;;1.98;1.13;;;8.20;99.90;;;;;;5044865;28;20048;-83
2023/04/02 09:13:36;;;;;;;2.80;0.98;;;8.20;99.90;;;;;;5063209;28;20047;-84
2023/04/02 09:16:07;;;;;;;2.72;1.23;;;8.40;99.90;;;;;;5063020;28;20048;-84
2023/04/02 09:18:34;;;;;;;2.33;1.38;;;8.50;99.90;;;;;;5051141;28;20044;-86
2023/04/02 09:21:19;;;;;;;1.90;1.10;;;8.60;99.90;;;;;;5060489;28;20074;-84
2023/04/02 09:23:47;;;;;;;5.53;1.80;;;8.70;99.90;;;;;;5066893;28;20047;-87
2023/04/02 09:26:28;;;;;;;6.55;2.00;;;8.70;99.90;;;;;;5069015;28;20060;-85
2023/04/02 09:29:20;;;;;;;4.78;1.80;;;8.70;99.90;;;;;;5069312;28;20048;-86
2023/04/02 09:31:54;;;;;;;2.33;1.50;;;8.70;99.90;;;;;;5054002;28;20463;-87
2023/04/02 09:34:32;;;;;;;5.00;1.60;;;8.90;99.90;;;;;;5065468;28;20143;-84
2023/04/02 09:37:11;;;;;;;2.78;1.15;;;9.00;99.90;;;;;;5077516;28;20383;-85
2023/04/02 09:39:38;;;;;;;3.17;1.33;;;9.10;99.90;;;;;;5077598;28;20503;-85
2023/04/02 09:42:06;;;;;;;2.55;1.20;;;9.30;99.90;;;;;;5062531;28;20040;-85
2023/04/02 09:44:33;;;;;;;2.58;1.25;;;9.50;99.90;;;;;;5049569;28;20052;-85
2023/04/02 09:47:03;;;;;;;3.42;1.70;;;9.60;99.90;;;;;;5078621;28;20055;-83
2023/04/02 09:49:32;;;;;;;4.93;1.67;;;9.70;99.90;;;;;;5078679;28;20082;-82
2023/04/02 09:52:26;;;;;;;3.75;1.35;;;9.80;99.90;;;;;;5061784;28;20082;-83
2023/04/02 09:55:15;;;;;;;3.78;1.65;;;9.80;99.90;;;;;;5045912;28;20048;-86
2023/04/02 09:57:42;;;;;;;2.55;1.52;;;9.70;99.90;;;;;;5063404;28;20075;-84
2023/04/02 10:00:23;;;;;;;5.82;1.75;;;9.70;99.90;;;;;;5061709;28;20134;-84
2023/04/02 10:03:18;;;;;;;2.80;1.58;;;9.70;99.90;;;;;;5060842;28;20489;-85
2023/04/02 10:05:45;;;;;;;3.17;1.40;;;9.70;99.90;;;;;;5056846;28;20732;-83
2023/04/02 10:08:25;;;;;;;3.90;1.33;;;9.70;99.90;;;;;;5041938;28;20055;-82
2023/04/02 10:10:56;;;;;;;3.38;1.40;;;9.90;99.90;;;;;;5046903;28;20044;-84
2023/04/02 10:13:27;;;;;;;3.10;1.60;;;10.20;99.90;;;;;;5064108;28;20399;-83
2023/04/02 10:16:01;;;;;;;2.85;1.65;;;10.20;99.90;;;;;;5029988;28;20087;-86
2023/04/02 10:18:40;;;;;;;4.70;1.58;;;10.10;99.90;;;;;;5084168;28;20051;-86
2023/04/02 10:21:09;;;;;;;4.28;1.52;;;10.10;99.90;;;;;;5049541;28;20094;-86
2023/04/02 10:23:36;;;;;;;4.05;2.05;;;10.30;99.90;;;;;;5067270;28;20067;-86
2023/04/02 10:26:09;;;;;;;2.90;1.27;;;10.30;99.90;;;;;;5048702;28;20052;-85
2023/04/02 10:28:39;;;;;;;4.13;1.40;;;10.30;99.90;;;;;;5083483;28;20178;-85
2023/04/02 10:31:33;;;;;;;3.58;1.88;;;10.40;99.90;;;;;;5077983;28;20075;-84
2023/04/02 10:34:03;;;;;;;3.28;1.60;;;10.30;99.90;;;;;;5046659;28;20072;-85
2023/04/02 10:36:42;;;;;;;4.35;1.42;;;10.30;99.90;;;;;;5046001;28;20614;-84
2023/04/02 10:39:39;;;;;;;5.88;1.73;;;10.30;99.90;;;;;;5078670;28;20718;-84
2023/04/02 10:42:20;;;;;;;6.35;1.70;;;10.20;99.90;;;;;;5062131;28;20127;-84
2023/04/02 10:44:52;;;;;;;4.78;1.80;;;10.20;99.90;;;;;;5046975;28;20279;-83
2023/04/02 10:47:45;;;;;;;4.18;1.45;;;10.30;99.90;;;;;;5045448;28;20040;-84
2023/04/02 10:50:24;;;;;;;3.53;1.60;;;10.30;99.90;;;;;;5051181;28;20135;-83
2023/04/02 10:53:02;;;;;;;3.20;1.50;;;10.30;99.90;;;;;;5077195;28;20089;-84
2023/04/02 10:55:31;;;;;;;2.92;1.35;;;10.40;99.90;;;;;;5059534;28;20051;-82
2023/04/02 10:57:59;;;;;;;2.90;1.40;;;10.50;99.90;;;;;;5037676;28;20047;-83
2023/04/02 11:00:27;;;;;;;3.65;1.35;;;10.60;99.90;;;;;;5026240;28;20066;-82
2023/04/02 11:03:12;;;;;;;3.58;1.58;;;10.60;99.90;;;;;;5044380;28;20626;-83
2023/04/02 11:05:49;;;;;;;4.50;1.80;;;10.80;99.90;;;;;;5057604;28;20627;-82
2023/04/02 11:08:27;;;;;;;2.78;1.30;;;11.00;99.90;;;;;;5025996;28;20050;-82
2023/04/02 11:11:06;;;;;;;2.38;1.25;;;11.30;99.90;;;;;;5061557;28;20478;-82
2023/04/02 11:13:57;;;;;;;5.55;1.90;;;11.50;99.90;;;;;;5044666;28;20056;-81
2023/04/02 11:16:24;;;;;;;3.17;1.58;;;11.30;99.90;;;;;;5043364;28;20495;-83
2023/04/02 11:19:13;;;;;;;3.15;1.20;;;11.20;99.90;;;;;;5043379;28;20079;-84
2023/04/02 11:21:59;;;;;;;4.53;1.63;;;11.50;99.90;;;;;;5058085;28;20137;-82
2023/04/02 11:24:32;;;;;;;4.07;2.13;;;11.40;99.90;;;;;;5026690;28;20048;-82
2023/04/02 11:27:14;;;;;;;2.42;1.35;;;11.40;99.90;;;;;;5077949;28;20047;-82
2023/04/02 11:29:48;;;;;;;2.35;1.38;;;11.40;99.90;;;;;;5079501;28;20052;-82
2023/04/02 11:32:26;;;;;;;1.85;1.20;;;11.50;99.90;;;;;;5057988;28;20538;-81
2023/04/02 11:34:53;;;;;;;2.22;1.38;;;11.60;99.90;;;;;;5072869;28;20059;-82
2023/04/02 11:37:39;;;;;;;3.45;0.93;;;11.70;99.90;;;;;;5060755;28;20051;-82
2023/04/02 11:40:14;;;;;;;2.58;1.10;;;11.90;99.90;;;;;;5058741;28;20054;-82
2023/04/02 11:42:54;;;;;;;1.77;1.02;;;12.20;99.90;;;;;;5074902;28;20519;-80
2023/04/02 11:45:24;;;;;;;3.20;1.35;;;12.40;99.90;;;;;;5063425;28;20052;-82
2023/04/02 11:48:11;;;;;;;5.82;2.17;;;12.50;99.90;;;;;;5081152;28;20419;-81
2023/04/02 11:50:42;;;;;;;3.53;2.00;;;12.20;99.90;;;;;;5064098;28;20048;-81
2023/04/02 11:53:13;;;;;;;7.03;1.75;;;12.00;99.90;;;;;;5041992;28;20056;-81
2023/04/02 11:55:44;;;;;;;3.13;1.50;;;12.10;99.90;;;;;;5059968;28;20128;-82
2023/04/02 11:58:26;;;;;;;2.97;1.70;;;12.10;99.90;;;;;;5025086;28;20170;-81
2023/04/02 12:01:13;;;;;;;3.35;1.65;;;12.30;99.90;;;;;;5058994;28;20150;-81
2023/04/02 12:03:47;;;;;;;4.80;1.60;;;12.10;99.90;;;;;;5057546;28;20040;-81
2023/04/02 12:06:24;;;;;;;2.70;1.48;;;12.50;99.90;;;;;;5040045;28;20106;-82
2023/04/02 12:09:15;;;;;;;2.50;1.30;;;12.60;99.90;;;;;;5059170;28;20344;-81
2023/04/02 12:11:42;;;;;;;2.90;1.30;;;12.50;99.90;;;;;;5058904;28;20067;-81
2023/04/02 12:14:35;;;;;;;3.80;1.75;;;12.30;99.90;;;;;;5040736;28;20057;-82
2023/04/02 12:17:13;;;;;;;2.40;1.23;;;12.10;99.90;;;;;;5073828;28;20510;-82
2023/04/02 12:19:39;;;;;;;2.88;1.35;;;12.00;99.90;;;;;;5041873;28;20041;-80
2023/04/02 12:22:15;;;;;;;3.10;1.10;;;12.00;99.90;;;;;;5024105;28;20138;-82
2023/04/02 12:24:42;;;;;;;2.22;1.17;;;12.30;99.90;;;;;;5041290;28;20048;-82
2023/04/02 12:27:15;;;;;;;2.70;1.10;;;12.60;99.90;;;;;;5042208;28;20515;-82
2023/04/02 12:29:42;;;;;;;5.72;1.45;;;12.60;99.90;;;;;;5053398;28;20503;-81
2023/04/02 12:32:22;;;;;;;2.30;1.33;;;12.80;99.90;;;;;;5056888;28;20087;-81
2023/04/02 12:34:51;;;;;;;2.55;1.10;;;12.70;99.90;;;;;;5041807;28;20185;-81
2023/04/02 12:37:25;;;;;;;3.63;1.42;;;12.90;99.90;;;;;;5040594;28;20056;-81
2023/04/02 12:40:16;;;;;;;3.00;1.38;;;13.10;99.90;;;;;;5040504;28;20053;-82
2023/04/02 12:42:49;;;;;;;2.42;1.38;;;13.50;99.90;;;;;;5047002;28;20439;-82
2023/04/02 12:45:23;;;;;;;2.15;1.48;;;14.30;99.90;;;;;;5056280;28;20637;-81
2023/04/02 12:47:49;;;;;;;2.60;1.15;;;15.20;99.90;;;;;;5055326;28;20052;-81
2023/04/02 12:50:16;;;;;;;2.55;1.25;;;15.30;99.80;;;;;;5053109;28;20055;-82
2023/04/02 12:52:45;;;;;;;2.53;1.48;;;14.70;99.90;;;;;;5053640;28;20068;-82
2023/04/02 12:55:38;;;;;;;2.42;1.30;;;14.80;99.90;;;;;;5053734;28;20704;-81
2023/04/02 12:58:28;;;;;;;2.25;1.33;;;15.60;99.20;;;;;;5059348;28;20044;-83
2023/04/02 13:01:19;;;;;;;5.28;1.55;;;16.20;99.90;;;;;;5037186;28;20160;-81
2023/04/02 13:04:11;;;;;;;3.55;1.40;;;16.00;99.80;;;;;;5054959;28;20133;-81
2023/04/02 13:06:47;;;;;;;3.05;1.40;;;16.20;99.60;;;;;;5054237;28;20044;-80
2023/04/02 13:09:40;;;;;;;3.75;1.92;;;16.60;98.80;;;;;;5061342;28;20041;-93
2023/04/02 13:12:24;;;;;;;4.63;1.70;;;15.90;98.70;;;;;;5057653;28;20072;-86
2023/04/02 13:14:53;;;;;;;4.82;1.70;;;15.70;97.60;;;;;;5063080;28;20590;-85
2023/04/02 13:17:47;;;;;;;4.20;1.80;;;15.90;98.50;;;;;;5029876;28;20078;-84
2023/04/02 13:20:39;;;;;;;2.83;1.63;;;16.40;96.30;;;;;;5052178;28;20052;-84
2023/04/02 13:23:30;;;;;;;3.13;1.20;;;17.30;96.40;;;;;;5060631;28;20056;-85
2023/04/02 13:26:01;;;;;;;1.33;0.80;;;17.50;96.20;;;;;;5045736;28;20481;-85
2023/04/02 13:28:28;;;;;;;2.67;1.00;;;17.00;96.20;;;;;;5061014;28;20086;-85
2023/04/02 13:30:55;;;;;;;1.90;1.20;;;16.60;94.40;;;;;;5051378;28;20360;-79
2023/04/02 13:33:22;;;;;;;3.47;1.35;;;16.10;95.50;;;;;;5035087;28;20457;-83
2023/04/02 13:35:49;;;;;;;2.03;1.00;;;16.60;95.60;;;;;;5055522;28;20052;-83
2023/04/02 13:38:16;;;;;;;2.80;1.20;;;17.20;95.20;;;;;;5039772;28;20048;-83